createdAt,value
2019-03-10T00:00:30.373Z,21.50
2019-03-10T00:02:58.765Z,17.50
2019-03-10T00:05:27.236Z,24.90
2019-03-10T00:07:56.091Z,19.63
2019-03-10T00:10:24.486Z,17.70
2019-03-10T00:12:53.159Z,21.63
2019-03-10T00:15:21.977Z,18.73
2019-03-10T00:17:50.390Z,19.37
2019-03-10T00:20:18.794Z,16.80
2019-03-10T00:22:47.233Z,22.07
2019-03-10T00:25:15.638Z,17.17
2019-03-10T00:27:44.313Z,23.40
2019-03-10T00:30:17.581Z,17.60
2019-03-10T00:32:46.318Z,18.17
2019-03-10T00:35:14.900Z,17.10
2019-03-10T00:37:43.522Z,19.30
2019-03-10T00:40:48.749Z,18.77
2019-03-10T00:43:49.310Z,17.30
2019-03-10T00:46:49.585Z,17.83
2019-03-10T00:49:43.727Z,22.07
2019-03-10T00:52:21.426Z,20.32
2019-03-10T00:54:49.862Z,17.03
2019-03-10T00:57:18.257Z,17.37
2019-03-10T00:59:46.706Z,20.50
2019-03-10T01:02:15.117Z,20.60
2019-03-10T01:04:43.515Z,15.60
2019-03-10T01:07:12.281Z,21.67
2019-03-10T01:09:40.689Z,19.73
2019-03-10T01:12:09.462Z,17.33
2019-03-10T01:14:37.906Z,17.20
2019-03-10T01:17:06.445Z,17.83
2019-03-10T01:19:36.186Z,22.37
2019-03-10T01:22:04.585Z,20.40
2019-03-10T01:24:33.025Z,19.37
2019-03-10T01:27:01.539Z,18.33
2019-03-10T01:29:29.938Z,23.23
2019-03-10T01:32:28.339Z,20.27
2019-03-10T01:34:59.766Z,21.57
2019-03-10T01:37:28.210Z,17.93
2019-03-10T01:39:56.613Z,16.97
2019-03-10T01:42:25.011Z,16.10
2019-03-10T01:44:53.602Z,22.57
2019-03-10T01:47:22.006Z,18.00
2019-03-10T01:49:50.402Z,19.20
2019-03-10T01:52:19.095Z,15.60
2019-03-10T01:54:47.627Z,20.10
2019-03-10T01:57:16.093Z,13.97
2019-03-10T01:59:44.652Z,19.13
2019-03-10T02:02:13.049Z,14.90
2019-03-10T02:04:41.457Z,16.07
2019-03-10T02:07:09.896Z,18.77
2019-03-10T02:09:38.306Z,17.17
2019-03-10T02:12:07.618Z,15.17
2019-03-10T02:14:36.097Z,17.80
2019-03-10T02:17:04.630Z,16.93
2019-03-10T02:19:33.574Z,16.90
2019-03-10T02:22:02.003Z,17.53
2019-03-10T02:24:30.404Z,15.20
2019-03-10T02:26:58.909Z,21.93
2019-03-10T02:29:27.320Z,19.83
2019-03-10T02:31:55.723Z,14.77
2019-03-10T02:34:24.306Z,19.93
2019-03-10T02:36:52.707Z,18.83
2019-03-10T02:39:21.201Z,21.40
2019-03-10T02:41:49.747Z,17.97
2019-03-10T02:44:18.134Z,19.00
2019-03-10T02:46:46.529Z,21.10
2019-03-10T02:49:14.976Z,19.37
2019-03-10T02:51:43.454Z,18.50
2019-03-10T02:54:11.871Z,20.53
2019-03-10T02:56:40.330Z,20.00
2019-03-10T02:59:08.731Z,18.17
2019-03-10T03:01:37.241Z,18.60
2019-03-10T03:04:05.774Z,18.80
2019-03-10T03:06:34.174Z,21.10
2019-03-10T03:09:03.648Z,23.37
2019-03-10T03:11:32.049Z,17.63
2019-03-10T03:14:00.454Z,18.57
2019-03-10T03:16:28.968Z,18.47
2019-03-10T03:18:57.439Z,22.63
2019-03-10T03:21:25.873Z,18.97
2019-03-10T03:23:54.259Z,20.37
2019-03-10T03:26:22.661Z,18.37
2019-03-10T03:28:51.106Z,19.13
2019-03-10T03:31:19.611Z,18.60
2019-03-10T03:33:48.186Z,19.57
2019-03-10T03:36:22.448Z,17.13
2019-03-10T03:38:54.262Z,14.17
2019-03-10T03:41:24.885Z,18.33
2019-03-10T03:43:53.464Z,17.03
2019-03-10T03:46:21.871Z,15.93
2019-03-10T03:48:50.262Z,12.70
2019-03-10T03:51:18.995Z,14.70
2019-03-10T03:53:47.390Z,15.00
2019-03-10T03:56:15.793Z,16.40
2019-03-10T03:58:44.220Z,16.37
2019-03-10T04:01:20.428Z,16.17
2019-03-10T04:03:48.835Z,17.23
2019-03-10T04:06:17.259Z,15.63
2019-03-10T04:08:45.726Z,14.90
2019-03-10T04:11:14.134Z,14.17
2019-03-10T04:13:42.535Z,16.47
2019-03-10T04:16:10.992Z,17.03
2019-03-10T04:18:39.392Z,14.53
2019-03-10T04:21:07.811Z,18.20
2019-03-10T04:23:36.434Z,18.57
2019-03-10T04:26:04.886Z,16.47
2019-03-10T04:28:33.298Z,15.67
2019-03-10T04:31:01.752Z,18.87
2019-03-10T04:33:30.150Z,19.33
2019-03-10T04:35:58.562Z,13.37
2019-03-10T04:38:27.411Z,15.83
2019-03-10T04:40:55.817Z,16.50
2019-03-10T04:43:24.214Z,19.20
2019-03-10T04:45:52.670Z,13.70
2019-03-10T04:48:21.057Z,17.83
2019-03-10T04:50:49.458Z,18.40
2019-03-10T04:53:17.896Z,14.80
2019-03-10T04:55:50.896Z,20.23
2019-03-10T04:58:20.934Z,20.33
2019-03-10T05:00:51.009Z,16.30
2019-03-10T05:03:19.414Z,19.70
2019-03-10T05:05:48.177Z,16.03
2019-03-10T05:08:16.576Z,14.50
2019-03-10T05:10:44.969Z,17.83
2019-03-10T05:13:13.466Z,11.50
2019-03-10T05:15:41.891Z,12.27
2019-03-10T05:18:10.295Z,11.30
2019-03-10T05:20:38.765Z,14.90
2019-03-10T05:23:29.279Z,15.13
2019-03-10T05:25:58.199Z,11.83
2019-03-10T05:28:27.336Z,11.50
2019-03-10T05:30:55.746Z,13.07
2019-03-10T05:33:24.351Z,19.03
2019-03-10T05:35:52.748Z,11.70
2019-03-10T05:38:21.157Z,12.27
2019-03-10T05:40:49.588Z,10.47
2019-03-10T05:43:17.980Z,12.97
2019-03-10T05:45:46.433Z,13.73
2019-03-10T05:48:14.897Z,14.10
2019-03-10T05:50:43.298Z,15.13
2019-03-10T05:53:11.946Z,15.23
2019-03-10T05:55:40.347Z,10.33
2019-03-10T05:58:08.733Z,10.80
2019-03-10T06:00:42.595Z,13.43
2019-03-10T06:03:07.301Z,17.13
2019-03-10T06:05:35.710Z,17.57
2019-03-10T06:08:04.433Z,10.50
2019-03-10T06:10:32.833Z,11.83
2019-03-10T06:13:01.235Z,13.47
2019-03-10T06:15:29.692Z,10.50
2019-03-10T06:17:58.093Z,11.87
2019-03-10T06:20:26.494Z,15.33
2019-03-10T06:22:55.245Z,14.97
2019-03-10T06:25:23.648Z,17.67
2019-03-10T06:27:52.046Z,16.03
2019-03-10T06:30:20.479Z,17.17
2019-03-10T06:32:48.876Z,11.47
2019-03-10T06:35:17.273Z,13.30
2019-03-10T06:37:45.749Z,16.83
2019-03-10T06:40:16.929Z,16.90
2019-03-10T06:42:45.434Z,14.70
2019-03-10T06:45:13.822Z,22.27
2019-03-10T06:47:42.229Z,19.93
2019-03-10T06:50:12.402Z,21.07
2019-03-10T06:52:41.128Z,22.33
2019-03-10T06:55:09.535Z,19.30
2019-03-10T06:57:37.977Z,19.27
2019-03-10T07:00:09.457Z,21.73
2019-03-10T07:02:37.857Z,24.73
2019-03-10T07:05:08.758Z,20.53
2019-03-10T07:07:37.597Z,19.20
2019-03-10T07:10:09.210Z,23.27
2019-03-10T07:12:37.728Z,21.00
2019-03-10T07:15:08.681Z,22.07
2019-03-10T07:17:37.073Z,17.87
2019-03-10T07:20:19.734Z,17.90
2019-03-10T07:22:48.217Z,15.27
2019-03-10T07:25:16.949Z,19.33
2019-03-10T07:27:50.099Z,17.37
2019-03-10T07:30:37.503Z,17.50
2019-03-10T07:33:22.749Z,18.67
2019-03-10T07:35:52.787Z,22.20
2019-03-10T07:38:41.258Z,14.68
2019-03-10T07:41:23.564Z,19.67
2019-03-10T07:44:08.812Z,18.80
2019-03-10T07:46:41.845Z,15.47
2019-03-10T07:49:12.122Z,13.93
2019-03-10T07:52:00.795Z,17.20
2019-03-10T07:54:40.245Z,13.23
2019-03-10T07:57:13.567Z,10.93
2019-03-10T07:59:56.255Z,13.07
2019-03-10T08:02:28.271Z,12.00
2019-03-10T08:05:07.612Z,13.07
2019-03-10T08:07:53.078Z,11.77
2019-03-10T08:10:23.280Z,12.80
2019-03-10T08:13:02.696Z,9.93
2019-03-10T08:15:49.025Z,14.43
2019-03-10T08:18:25.596Z,11.57
2019-03-10T08:21:12.126Z,7.57
2019-03-10T08:23:42.501Z,4.90
2019-03-10T08:26:12.858Z,7.80
2019-03-10T08:28:52.398Z,6.13
2019-03-10T08:31:28.611Z,3.80
2019-03-10T08:34:08.295Z,7.00
2019-03-10T08:36:47.818Z,3.43
2019-03-10T08:39:30.510Z,6.00
2019-03-10T08:42:03.923Z,3.27
2019-03-10T08:44:44.484Z,3.53
2019-03-10T08:47:17.289Z,3.60
2019-03-10T08:49:51.167Z,4.10
2019-03-10T08:52:36.384Z,4.77
2019-03-10T08:55:21.955Z,5.87
2019-03-10T08:57:59.590Z,3.57
2019-03-10T09:00:45.639Z,2.90
2019-03-10T09:03:28.223Z,3.40
2019-03-10T09:06:16.651Z,1.00
2019-03-10T09:09:06.089Z,0.80
2019-03-10T09:11:52.190Z,1.47
2019-03-10T09:14:31.613Z,1.33
2019-03-10T09:17:05.177Z,1.40
2019-03-10T09:19:51.785Z,1.90
2019-03-10T09:22:31.127Z,1.80
2019-03-10T09:25:09.813Z,1.00
2019-03-10T09:27:58.372Z,1.23
2019-03-10T09:30:38.141Z,1.70
2019-03-10T09:33:20.521Z,1.23
2019-03-10T09:35:53.973Z,1.20
2019-03-10T09:38:27.009Z,2.30
2019-03-10T09:41:13.749Z,2.97
2019-03-10T09:44:00.438Z,2.23
2019-03-10T09:46:40.202Z,2.52
2019-03-10T09:49:26.529Z,2.90
2019-03-10T09:52:13.484Z,1.40
2019-03-10T09:54:56.437Z,2.27
2019-03-10T09:57:26.867Z,2.27
2019-03-10T09:59:57.906Z,1.63
2019-03-10T10:02:30.985Z,2.43
2019-03-10T10:05:05.167Z,4.03
2019-03-10T10:07:36.243Z,1.07
2019-03-10T10:10:09.887Z,1.60
2019-03-10T10:12:40.917Z,1.43
2019-03-10T10:15:27.963Z,2.30
2019-03-10T10:18:01.683Z,3.80
2019-03-10T10:20:37.870Z,4.10
2019-03-10T10:23:17.376Z,3.03
2019-03-10T10:26:07.596Z,3.57
2019-03-10T10:28:29.208Z,4.60
2019-03-10T10:31:13.925Z,5.37
2019-03-10T10:33:44.093Z,5.80
2019-03-10T10:36:14.387Z,5.50
2019-03-10T10:38:53.766Z,4.43
2019-03-10T10:41:42.934Z,3.67
2019-03-10T10:44:28.257Z,4.60
2019-03-10T10:47:14.776Z,6.23
2019-03-10T10:49:50.705Z,5.10
2019-03-10T10:52:32.930Z,5.57
2019-03-10T10:55:02.977Z,5.47
2019-03-10T10:57:33.049Z,5.57
2019-03-10T11:00:03.198Z,6.43
2019-03-10T11:02:33.225Z,5.15
2019-03-10T11:05:03.265Z,8.33
2019-03-10T11:07:36.348Z,9.53
2019-03-10T11:10:12.213Z,5.73
2019-03-10T11:12:54.297Z,8.37
2019-03-10T11:15:30.354Z,5.90
2019-03-10T11:18:09.464Z,8.20
2019-03-10T11:20:35.170Z,8.07
2019-03-10T11:23:08.166Z,7.93
2019-03-10T11:25:38.308Z,5.57
2019-03-10T11:28:18.028Z,8.10
2019-03-10T11:30:48.108Z,11.83
2019-03-10T11:33:18.145Z,8.17
2019-03-10T11:35:48.179Z,6.67
2019-03-10T11:38:36.977Z,6.50
2019-03-10T11:41:09.338Z,8.57
2019-03-10T11:43:42.300Z,7.87
2019-03-10T11:46:33.649Z,6.00
2019-03-10T11:49:06.193Z,11.93
2019-03-10T11:51:39.239Z,8.57
2019-03-10T11:54:12.301Z,8.67
2019-03-10T11:56:48.550Z,9.43
2019-03-10T11:59:27.625Z,7.83
2019-03-10T12:02:16.719Z,9.70
2019-03-10T12:04:46.898Z,9.73
2019-03-10T12:07:19.663Z,10.50
2019-03-10T12:09:48.104Z,10.00
2019-03-10T12:12:16.504Z,11.37
2019-03-10T12:14:45.012Z,10.73
2019-03-10T12:17:13.542Z,11.73
2019-03-10T12:19:41.938Z,11.03
2019-03-10T12:22:10.375Z,10.17
2019-03-10T12:24:38.782Z,14.07
2019-03-10T12:27:07.222Z,14.93
2019-03-10T12:29:35.626Z,17.07
2019-03-10T12:32:04.998Z,13.20
2019-03-10T12:34:33.785Z,14.93
2019-03-10T12:37:02.489Z,13.00
2019-03-10T12:39:30.944Z,10.93
2019-03-10T12:41:59.386Z,10.40
2019-03-10T12:44:27.780Z,8.90
2019-03-10T12:46:56.175Z,8.03
2019-03-10T12:49:24.900Z,6.30
2019-03-10T12:51:53.354Z,13.03
2019-03-10T12:54:21.759Z,11.03
2019-03-10T12:56:50.225Z,7.87
2019-03-10T12:59:18.622Z,9.00
2019-03-10T13:01:47.022Z,8.57
2019-03-10T13:04:15.550Z,8.13
2019-03-10T13:06:44.046Z,6.60
2019-03-10T13:09:12.522Z,8.97
2019-03-10T13:11:40.961Z,13.57
2019-03-10T13:14:09.429Z,9.20
2019-03-10T13:16:37.831Z,7.67
2019-03-10T13:19:06.262Z,7.87
2019-03-10T13:21:34.746Z,7.23
2019-03-10T13:24:03.139Z,6.87
2019-03-10T13:26:31.573Z,9.03
2019-03-10T13:28:59.974Z,8.20
2019-03-10T13:31:28.375Z,10.97
2019-03-10T13:33:57.134Z,6.33
2019-03-10T13:36:25.537Z,10.67
2019-03-10T13:38:53.979Z,7.60
2019-03-10T13:41:22.401Z,9.23
2019-03-10T13:43:51.054Z,6.47
2019-03-10T13:46:19.460Z,4.33
2019-03-10T13:48:47.849Z,8.17
2019-03-10T13:51:16.292Z,6.93
2019-03-10T13:53:44.695Z,10.70
2019-03-10T13:56:13.134Z,7.90
2019-03-10T13:58:42.073Z,8.47
2019-03-10T14:01:10.640Z,9.03
2019-03-10T14:03:39.617Z,4.57
2019-03-10T14:06:08.046Z,6.13
2019-03-10T14:08:36.451Z,9.03
2019-03-10T14:11:04.845Z,4.90
2019-03-10T14:13:33.546Z,9.47
2019-03-10T14:16:01.954Z,7.70
2019-03-10T14:18:30.350Z,6.57
2019-03-10T14:20:58.799Z,5.90
2019-03-10T14:23:27.197Z,5.23
2019-03-10T14:25:55.600Z,5.27
2019-03-10T14:28:24.048Z,2.07
2019-03-10T14:30:52.490Z,6.93
2019-03-10T14:33:20.880Z,4.40
2019-03-10T14:35:49.278Z,2.37
2019-03-10T14:38:17.713Z,3.80
2019-03-10T14:40:46.117Z,1.53
2019-03-10T14:43:14.558Z,2.00
2019-03-10T14:45:42.967Z,4.30
2019-03-10T14:48:11.548Z,3.57
2019-03-10T14:50:39.981Z,3.30
2019-03-10T14:53:08.429Z,3.27
2019-03-10T14:55:37.485Z,4.03
2019-03-10T14:58:05.953Z,3.07
2019-03-10T15:00:34.400Z,3.20
2019-03-10T15:03:02.797Z,2.50
2019-03-10T15:05:31.193Z,1.33
2019-03-10T15:07:59.644Z,2.17
2019-03-10T15:10:28.050Z,1.53
2019-03-10T15:12:56.523Z,5.27
2019-03-10T15:15:25.457Z,2.07
2019-03-10T15:17:53.850Z,1.03
2019-03-10T15:20:22.257Z,2.90
2019-03-10T15:22:50.706Z,2.30
2019-03-10T15:25:25.030Z,2.63
2019-03-10T15:27:52.922Z,1.83
2019-03-10T15:30:25.224Z,1.82
2019-03-10T15:32:53.629Z,3.07
2019-03-10T15:35:22.024Z,3.23
2019-03-10T15:37:50.708Z,2.70
2019-03-10T15:40:19.992Z,1.87
2019-03-10T15:42:48.378Z,1.33
2019-03-10T15:45:17.763Z,1.50
2019-03-10T15:47:46.333Z,2.63
2019-03-10T15:50:31.584Z,2.47
2019-03-10T15:53:00.021Z,1.47
2019-03-10T15:55:29.460Z,1.67
2019-03-10T15:57:57.874Z,2.93
2019-03-10T16:00:27.565Z,1.77
2019-03-10T16:02:56.198Z,3.90
2019-03-10T16:05:24.660Z,3.33
2019-03-10T16:07:53.293Z,1.23
2019-03-10T16:10:21.743Z,1.53
2019-03-10T16:12:50.140Z,1.53
2019-03-10T16:15:26.566Z,2.90
2019-03-10T16:17:54.988Z,3.53
2019-03-10T16:20:23.453Z,1.50
2019-03-10T16:22:52.339Z,1.60
2019-03-10T16:25:20.734Z,3.40
2019-03-10T16:27:50.052Z,5.97
2019-03-10T16:30:23.622Z,3.57
2019-03-10T16:32:52.019Z,1.93
2019-03-10T16:35:22.279Z,1.67
2019-03-10T16:37:50.623Z,1.00
2019-03-10T16:40:21.132Z,1.27
2019-03-10T16:42:49.799Z,1.57
2019-03-10T16:45:23.137Z,1.00
2019-03-10T16:47:51.526Z,0.90
2019-03-10T16:50:27.645Z,0.47
2019-03-10T16:52:56.042Z,0.90
2019-03-10T16:55:24.510Z,0.97
2019-03-10T16:57:52.948Z,2.77
2019-03-10T17:00:21.460Z,1.67
2019-03-10T17:02:50.695Z,0.97
2019-03-10T17:05:21.407Z,0.67
2019-03-10T17:07:50.327Z,1.27
2019-03-10T17:10:25.909Z,2.07
2019-03-10T17:12:54.675Z,1.20
2019-03-10T17:15:26.770Z,0.90
2019-03-10T17:17:55.460Z,0.87
2019-03-10T17:20:23.958Z,1.87
2019-03-10T17:22:52.394Z,1.10
2019-03-10T17:25:20.790Z,1.80
2019-03-10T17:27:49.233Z,2.30
2019-03-10T17:30:22.282Z,1.20
2019-03-10T17:32:51.460Z,0.83
2019-03-10T17:35:21.019Z,0.90
2019-03-10T17:37:49.880Z,2.10
2019-03-10T17:40:22.192Z,0.78
2019-03-10T17:42:50.583Z,0.80
2019-03-10T17:45:20.765Z,1.43
2019-03-10T17:47:49.230Z,0.77
2019-03-10T17:50:18.669Z,1.40
2019-03-10T17:52:48.208Z,1.13
2019-03-10T17:55:21.622Z,0.87
2019-03-10T17:57:50.042Z,0.93
2019-03-10T18:00:38.471Z,2.37
2019-03-10T18:03:06.904Z,2.40
2019-03-10T18:05:35.331Z,1.23
2019-03-10T18:08:04.006Z,3.53
2019-03-10T18:10:32.401Z,2.00
2019-03-10T18:13:00.802Z,5.43
2019-03-10T18:15:29.458Z,1.43
2019-03-10T18:17:57.846Z,2.50
2019-03-10T18:20:26.312Z,2.80
2019-03-10T18:22:54.751Z,2.70
2019-03-10T18:25:23.144Z,2.87
2019-03-10T18:27:51.552Z,2.50
2019-03-10T18:30:26.528Z,4.03
2019-03-10T18:32:54.936Z,1.67
2019-03-10T18:35:23.327Z,3.77
2019-03-10T18:37:52.129Z,3.30
2019-03-10T18:40:25.218Z,5.63
2019-03-10T18:42:53.613Z,2.60
2019-03-10T18:45:22.058Z,3.67
2019-03-10T18:47:50.450Z,4.30
2019-03-10T18:50:20.976Z,4.80
2019-03-10T18:52:49.396Z,2.90
2019-03-10T18:55:18.641Z,5.87
2019-03-10T18:57:47.198Z,5.00
2019-03-10T19:00:29.397Z,3.55
2019-03-10T19:02:57.800Z,4.43
2019-03-10T19:05:26.200Z,5.33
2019-03-10T19:07:54.688Z,5.77
2019-03-10T19:10:23.106Z,3.70
2019-03-10T19:12:51.506Z,3.03
2019-03-10T19:15:21.771Z,3.13
2019-03-10T19:17:50.961Z,3.57
2019-03-10T19:20:19.356Z,5.22
2019-03-10T19:22:47.865Z,3.90
2019-03-10T19:25:16.792Z,2.37
2019-03-10T19:27:45.530Z,3.43
2019-03-10T19:30:24.737Z,3.40
2019-03-10T19:32:53.132Z,3.73
2019-03-10T19:35:21.521Z,1.93
2019-03-10T19:37:49.967Z,6.37
2019-03-10T19:40:24.141Z,3.27
2019-03-10T19:42:52.574Z,3.57
2019-03-10T19:45:22.417Z,4.50
2019-03-10T19:47:50.825Z,2.90
2019-03-10T19:50:27.205Z,3.00
2019-03-10T19:52:55.445Z,5.23
2019-03-10T19:55:23.850Z,2.07
2019-03-10T19:57:52.299Z,4.00
2019-03-10T20:00:21.431Z,3.63
2019-03-10T20:02:49.828Z,2.53
2019-03-10T20:05:18.278Z,3.30
2019-03-10T20:07:46.670Z,2.20
2019-03-10T20:10:18.157Z,4.62
2019-03-10T20:12:46.860Z,1.80
2019-03-10T20:15:25.335Z,3.27
2019-03-10T20:17:54.037Z,6.30
2019-03-10T20:20:31.421Z,4.90
2019-03-10T20:23:01.166Z,3.43
2019-03-10T20:25:30.010Z,3.93
2019-03-10T20:27:58.416Z,3.47
2019-03-10T20:30:28.343Z,2.20
2019-03-10T20:32:57.245Z,3.57
2019-03-10T20:35:25.902Z,4.60
2019-03-10T20:37:54.304Z,1.27
2019-03-10T20:40:27.886Z,3.63
2019-03-10T20:42:56.577Z,2.53
2019-03-10T20:45:25.080Z,4.27
2019-03-10T20:47:56.121Z,2.37
2019-03-10T20:50:23.709Z,2.80
2019-03-10T20:52:52.082Z,2.40
2019-03-10T20:55:20.511Z,2.50
2019-03-10T20:57:48.915Z,1.53
2019-03-10T21:00:20.418Z,2.27
2019-03-10T21:02:48.876Z,1.93
2019-03-10T21:05:17.442Z,1.27
2019-03-10T21:07:45.837Z,4.80
2019-03-10T21:10:17.354Z,2.47
2019-03-10T21:12:45.841Z,1.27
2019-03-10T21:15:16.774Z,1.63
2019-03-10T21:17:45.335Z,1.33
2019-03-10T21:20:16.538Z,1.50
2019-03-10T21:22:45.045Z,1.20
2019-03-10T21:25:15.673Z,1.67
2019-03-10T21:27:44.337Z,1.43
2019-03-10T21:30:17.755Z,1.87
2019-03-10T21:32:46.160Z,3.37
2019-03-10T21:35:17.994Z,2.30
2019-03-10T21:37:44.789Z,3.33
2019-03-10T21:40:18.874Z,1.97
2019-03-10T21:42:47.286Z,5.70
2019-03-10T21:45:16.103Z,1.83
2019-03-10T21:47:44.505Z,3.87
2019-03-10T21:50:17.132Z,3.20
2019-03-10T21:52:45.644Z,2.70
2019-03-10T21:55:14.986Z,3.70
2019-03-10T21:57:43.387Z,2.50
2019-03-10T22:00:19.498Z,3.57
2019-03-10T22:02:47.978Z,4.50
2019-03-10T22:05:17.195Z,4.77
2019-03-10T22:07:45.634Z,4.80
2019-03-10T22:10:26.224Z,6.80
2019-03-10T22:12:45.805Z,5.27
2019-03-10T22:15:15.710Z,7.03
2019-03-10T22:17:44.190Z,4.67
2019-03-10T22:20:17.753Z,7.90
2019-03-10T22:22:49.103Z,6.37
2019-03-10T22:25:16.928Z,7.13
2019-03-10T22:27:46.237Z,9.67
2019-03-10T22:30:18.858Z,7.07
2019-03-10T22:32:47.320Z,7.27
2019-03-10T22:35:15.843Z,10.10
2019-03-10T22:37:44.421Z,7.70
2019-03-10T22:40:14.259Z,9.07
2019-03-10T22:42:42.761Z,9.43
2019-03-10T22:45:13.967Z,7.43
2019-03-10T22:47:42.417Z,11.07
2019-03-10T22:50:13.164Z,7.87
2019-03-10T22:52:41.576Z,8.73
2019-03-10T22:55:11.309Z,14.73
2019-03-10T22:57:39.753Z,9.37
2019-03-10T23:00:13.774Z,7.33
2019-03-10T23:02:42.223Z,9.57
2019-03-10T23:05:10.725Z,8.50
2019-03-10T23:07:39.129Z,8.33
2019-03-10T23:10:13.386Z,10.90
2019-03-10T23:12:41.813Z,7.27
2019-03-10T23:15:12.160Z,9.30
2019-03-10T23:17:40.662Z,11.47
2019-03-10T23:20:14.105Z,5.90
2019-03-10T23:22:42.500Z,9.87
2019-03-10T23:25:11.596Z,6.97
2019-03-10T23:27:40.153Z,7.90
2019-03-10T23:30:11.560Z,7.57
2019-03-10T23:32:40.302Z,9.67
2019-03-10T23:35:08.825Z,13.63
2019-03-10T23:37:37.228Z,11.50
2019-03-10T23:40:08.907Z,14.00
2019-03-10T23:42:37.313Z,6.87
2019-03-10T23:45:11.417Z,8.63
2019-03-10T23:47:39.862Z,10.63
2019-03-10T23:50:10.697Z,9.67
2019-03-10T23:52:39.187Z,10.13
2019-03-10T23:55:10.345Z,12.53
2019-03-10T23:57:38.760Z,11.50
